sensor_id;sensor_type;location;lat;lon;timestamp;temperature;humidity
47590;DHT22;33316;52.298;9.056;2023-05-10T00:00:49;17.90;83.60
47590;DHT22;33316;52.298;9.056;2023-05-10T00:03:16;17.90;83.70
47590;DHT22;33316;52.298;9.056;2023-05-10T00:05:42;17.90;84.00
47590;DHT22;33316;52.298;9.056;2023-05-10T00:08:10;17.90;84.00
47590;DHT22;33316;52.298;9.056;2023-05-10T00:10:37;17.80;84.20
47590;DHT22;33316;52.298;9.056;2023-05-10T00:13:04;17.80;84.30
47590;DHT22;33316;52.298;9.056;2023-05-10T00:15:30;17.80;84.70
47590;DHT22;33316;52.298;9.056;2023-05-10T00:17:58;17.80;84.90
47590;DHT22;33316;52.298;9.056;2023-05-10T00:20:24;17.80;85.10
47590;DHT22;33316;52.298;9.056;2023-05-10T00:22:51;17.80;85.20
47590;DHT22;33316;52.298;9.056;2023-05-10T00:25:19;17.80;85.50
47590;DHT22;33316;52.298;9.056;2023-05-10T00:27:46;17.80;85.80
47590;DHT22;33316;52.298;9.056;2023-05-10T00:30:13;17.80;85.90
47590;DHT22;33316;52.298;9.056;2023-05-10T00:32:40;17.70;85.80
47590;DHT22;33316;52.298;9.056;2023-05-10T00:35:08;17.70;85.90
47590;DHT22;33316;52.298;9.056;2023-05-10T00:37:35;17.70;86.30
47590;DHT22;33316;52.298;9.056;2023-05-10T00:40:01;17.60;86.40
47590;DHT22;33316;52.298;9.056;2023-05-10T00:42:29;17.60;86.70
47590;DHT22;33316;52.298;9.056;2023-05-10T00:44:56;17.60;86.90
47590;DHT22;33316;52.298;9.056;2023-05-10T00:47:23;17.60;87.00
47590;DHT22;33316;52.298;9.056;2023-05-10T00:49:50;17.60;87.00
47590;DHT22;33316;52.298;9.056;2023-05-10T00:52:17;17.60;87.20
47590;DHT22;33316;52.298;9.056;2023-05-10T00:54:44;17.60;87.40
47590;DHT22;33316;52.298;9.056;2023-05-10T00:57:11;17.50;87.60
47590;DHT22;33316;52.298;9.056;2023-05-10T00:59:39;17.50;87.70
47590;DHT22;33316;52.298;9.056;2023-05-10T01:02:06;17.50;87.80
47590;DHT22;33316;52.298;9.056;2023-05-10T01:04:33;17.50;88.00
47590;DHT22;33316;52.298;9.056;2023-05-10T01:06:59;17.40;88.10
47590;DHT22;33316;52.298;9.056;2023-05-10T01:09:26;17.40;88.20
47590;DHT22;33316;52.298;9.056;2023-05-10T01:11:54;17.30;88.20
47590;DHT22;33316;52.298;9.056;2023-05-10T01:14:21;17.30;88.40
47590;DHT22;33316;52.298;9.056;2023-05-10T01:16:49;17.30;88.60
47590;DHT22;33316;52.298;9.056;2023-05-10T01:19:19;17.30;88.70
47590;DHT22;33316;52.298;9.056;2023-05-10T01:21:53;17.30;88.80
47590;DHT22;33316;52.298;9.056;2023-05-10T01:24:56;17.30;88.90
47590;DHT22;33316;52.298;9.056;2023-05-10T01:27:51;17.30;89.50
47590;DHT22;33316;52.298;9.056;2023-05-10T01:30:56;17.30;89.60
47590;DHT22;33316;52.298;9.056;2023-05-10T01:33:33;17.20;89.80
47590;DHT22;33316;52.298;9.056;2023-05-10T01:36:05;17.30;89.50
47590;DHT22;33316;52.298;9.056;2023-05-10T01:38:40;17.30;89.60
47590;DHT22;33316;52.298;9.056;2023-05-10T01:41:13;17.20;89.60
47590;DHT22;33316;52.298;9.056;2023-05-10T01:43:50;17.20;89.70
47590;DHT22;33316;52.298;9.056;2023-05-10T01:46:27;17.20;90.00
47590;DHT22;33316;52.298;9.056;2023-05-10T01:48:57;17.20;90.00
47590;DHT22;33316;52.298;9.056;2023-05-10T01:51:27;17.20;90.10
47590;DHT22;33316;52.298;9.056;2023-05-10T01:54:00;17.20;90.10
47590;DHT22;33316;52.298;9.056;2023-05-10T01:56:29;17.20;90.10
47590;DHT22;33316;52.298;9.056;2023-05-10T01:58:58;17.10;90.10
47590;DHT22;33316;52.298;9.056;2023-05-10T02:01:26;17.10;90.20
47590;DHT22;33316;52.298;9.056;2023-05-10T02:03:55;17.20;90.30
47590;DHT22;33316;52.298;9.056;2023-05-10T02:06:24;17.10;90.20
47590;DHT22;33316;52.298;9.056;2023-05-10T02:08:53;17.10;90.30
47590;DHT22;33316;52.298;9.056;2023-05-10T02:11:20;17.10;90.40
47590;DHT22;33316;52.298;9.056;2023-05-10T02:13:49;17.00;90.40
47590;DHT22;33316;52.298;9.056;2023-05-10T02:16:17;17.00;90.40
47590;DHT22;33316;52.298;9.056;2023-05-10T02:18:45;17.00;90.40
47590;DHT22;33316;52.298;9.056;2023-05-10T02:21:15;17.00;90.50
47590;DHT22;33316;52.298;9.056;2023-05-10T02:23:43;16.90;90.60
47590;DHT22;33316;52.298;9.056;2023-05-10T02:26:11;16.90;90.60
47590;DHT22;33316;52.298;9.056;2023-05-10T02:28:40;16.90;90.70
47590;DHT22;33316;52.298;9.056;2023-05-10T02:31:09;16.90;90.80
47590;DHT22;33316;52.298;9.056;2023-05-10T02:33:37;16.80;90.90
47590;DHT22;33316;52.298;9.056;2023-05-10T02:36:06;16.80;90.90
47590;DHT22;33316;52.298;9.056;2023-05-10T02:38:35;16.80;90.90
47590;DHT22;33316;52.298;9.056;2023-05-10T02:41:04;16.80;91.00
47590;DHT22;33316;52.298;9.056;2023-05-10T02:43:33;16.80;91.00
47590;DHT22;33316;52.298;9.056;2023-05-10T02:46:00;16.80;91.10
47590;DHT22;33316;52.298;9.056;2023-05-10T02:48:27;16.80;91.10
47590;DHT22;33316;52.298;9.056;2023-05-10T02:50:56;16.80;91.10
47590;DHT22;33316;52.298;9.056;2023-05-10T02:53:31;16.80;91.20
47590;DHT22;33316;52.298;9.056;2023-05-10T02:56:00;16.80;91.20
47590;DHT22;33316;52.298;9.056;2023-05-10T02:58:29;16.80;91.70
47590;DHT22;33316;52.298;9.056;2023-05-10T03:00:55;16.80;91.50
47590;DHT22;33316;52.298;9.056;2023-05-10T03:03:22;16.80;91.30
47590;DHT22;33316;52.298;9.056;2023-05-10T03:05:49;16.80;91.30
47590;DHT22;33316;52.298;9.056;2023-05-10T03:08:16;16.80;91.30
47590;DHT22;33316;52.298;9.056;2023-05-10T03:10:50;16.80;91.30
47590;DHT22;33316;52.298;9.056;2023-05-10T03:13:29;16.80;91.40
47590;DHT22;33316;52.298;9.056;2023-05-10T03:16:05;16.70;91.40
47590;DHT22;33316;52.298;9.056;2023-05-10T03:18:39;16.60;91.50
47590;DHT22;33316;52.298;9.056;2023-05-10T03:21:11;16.60;91.60
47590;DHT22;33316;52.298;9.056;2023-05-10T03:23:41;16.60;91.70
47590;DHT22;33316;52.298;9.056;2023-05-10T03:26:09;16.60;91.80
47590;DHT22;33316;52.298;9.056;2023-05-10T03:28:40;16.70;91.80
47590;DHT22;33316;52.298;9.056;2023-05-10T03:31:08;16.70;91.80
47590;DHT22;33316;52.298;9.056;2023-05-10T03:33:35;16.70;91.80
47590;DHT22;33316;52.298;9.056;2023-05-10T03:36:02;16.70;91.90
47590;DHT22;33316;52.298;9.056;2023-05-10T03:38:28;16.70;91.90
47590;DHT22;33316;52.298;9.056;2023-05-10T03:40:55;16.70;92.00
47590;DHT22;33316;52.298;9.056;2023-05-10T03:43:22;16.70;92.00
47590;DHT22;33316;52.298;9.056;2023-05-10T03:45:50;16.70;91.90
47590;DHT22;33316;52.298;9.056;2023-05-10T03:48:17;16.70;91.80
47590;DHT22;33316;52.298;9.056;2023-05-10T03:50:43;16.70;91.60
47590;DHT22;33316;52.298;9.056;2023-05-10T03:53:10;16.70;91.40
47590;DHT22;33316;52.298;9.056;2023-05-10T03:55:37;16.60;91.30
47590;DHT22;33316;52.298;9.056;2023-05-10T03:58:04;16.60;91.10
47590;DHT22;33316;52.298;9.056;2023-05-10T04:00:31;16.60;91.00
47590;DHT22;33316;52.298;9.056;2023-05-10T04:02:59;16.60;90.90
47590;DHT22;33316;52.298;9.056;2023-05-10T04:05:26;16.60;90.90
47590;DHT22;33316;52.298;9.056;2023-05-10T04:07:52;16.60;90.80
47590;DHT22;33316;52.298;9.056;2023-05-10T04:10:19;16.50;90.70
47590;DHT22;33316;52.298;9.056;2023-05-10T04:12:46;16.50;90.70
47590;DHT22;33316;52.298;9.056;2023-05-10T04:15:13;16.40;90.60
47590;DHT22;33316;52.298;9.056;2023-05-10T04:17:40;16.40;90.60
47590;DHT22;33316;52.298;9.056;2023-05-10T04:20:09;16.30;90.60
47590;DHT22;33316;52.298;9.056;2023-05-10T04:22:36;16.30;90.70
47590;DHT22;33316;52.298;9.056;2023-05-10T04:25:03;16.20;90.70
47590;DHT22;33316;52.298;9.056;2023-05-10T04:27:30;16.20;90.70
47590;DHT22;33316;52.298;9.056;2023-05-10T04:29:56;16.20;90.80
47590;DHT22;33316;52.298;9.056;2023-05-10T04:32:23;16.20;90.80
47590;DHT22;33316;52.298;9.056;2023-05-10T04:34:50;16.10;90.80
47590;DHT22;33316;52.298;9.056;2023-05-10T04:37:18;16.10;91.30
47590;DHT22;33316;52.298;9.056;2023-05-10T04:39:45;16.10;91.00
47590;DHT22;33316;52.298;9.056;2023-05-10T04:42:11;16.10;91.00
47590;DHT22;33316;52.298;9.056;2023-05-10T04:44:40;16.10;91.10
47590;DHT22;33316;52.298;9.056;2023-05-10T04:47:07;16.10;91.10
47590;DHT22;33316;52.298;9.056;2023-05-10T04:49:33;16.00;91.10
47590;DHT22;33316;52.298;9.056;2023-05-10T04:52:00;16.00;91.10
47590;DHT22;33316;52.298;9.056;2023-05-10T04:54:28;16.00;91.10
47590;DHT22;33316;52.298;9.056;2023-05-10T04:56:54;16.00;91.20
47590;DHT22;33316;52.298;9.056;2023-05-10T04:59:21;16.00;91.20
47590;DHT22;33316;52.298;9.056;2023-05-10T05:01:48;16.00;91.20
47590;DHT22;33316;52.298;9.056;2023-05-10T05:04:14;16.00;91.30
47590;DHT22;33316;52.298;9.056;2023-05-10T05:06:41;16.00;91.30
47590;DHT22;33316;52.298;9.056;2023-05-10T05:09:08;16.00;91.30
47590;DHT22;33316;52.298;9.056;2023-05-10T05:11:36;16.00;91.40
47590;DHT22;33316;52.298;9.056;2023-05-10T05:14:03;16.00;91.50
47590;DHT22;33316;52.298;9.056;2023-05-10T05:16:30;16.10;91.50
47590;DHT22;33316;52.298;9.056;2023-05-10T05:18:57;16.10;91.60
47590;DHT22;33316;52.298;9.056;2023-05-10T05:21:24;16.10;91.60
47590;DHT22;33316;52.298;9.056;2023-05-10T05:23:52;16.10;91.60
47590;DHT22;33316;52.298;9.056;2023-05-10T05:26:18;16.10;91.60
47590;DHT22;33316;52.298;9.056;2023-05-10T05:28:46;16.20;91.70
47590;DHT22;33316;52.298;9.056;2023-05-10T05:31:14;16.20;91.70
47590;DHT22;33316;52.298;9.056;2023-05-10T05:33:40;16.20;91.70
47590;DHT22;33316;52.298;9.056;2023-05-10T05:36:07;16.20;91.60
47590;DHT22;33316;52.298;9.056;2023-05-10T05:38:34;16.20;91.60
47590;DHT22;33316;52.298;9.056;2023-05-10T05:41:01;16.20;91.60
47590;DHT22;33316;52.298;9.056;2023-05-10T05:43:28;16.20;91.60
47590;DHT22;33316;52.298;9.056;2023-05-10T05:45:56;16.20;91.50
47590;DHT22;33316;52.298;9.056;2023-05-10T05:48:23;16.20;91.50
47590;DHT22;33316;52.298;9.056;2023-05-10T05:50:53;16.20;91.50
47590;DHT22;33316;52.298;9.056;2023-05-10T05:53:20;16.20;91.50
47590;DHT22;33316;52.298;9.056;2023-05-10T05:55:53;16.10;91.40
47590;DHT22;33316;52.298;9.056;2023-05-10T05:58:20;16.10;91.40
47590;DHT22;33316;52.298;9.056;2023-05-10T06:00:47;16.10;91.40
47590;DHT22;33316;52.298;9.056;2023-05-10T06:03:15;16.10;91.40
47590;DHT22;33316;52.298;9.056;2023-05-10T06:05:41;16.10;91.40
47590;DHT22;33316;52.298;9.056;2023-05-10T06:08:08;16.00;91.40
47590;DHT22;33316;52.298;9.056;2023-05-10T06:10:37;16.00;91.30
47590;DHT22;33316;52.298;9.056;2023-05-10T06:13:04;16.00;91.30
47590;DHT22;33316;52.298;9.056;2023-05-10T06:15:30;16.00;91.30
47590;DHT22;33316;52.298;9.056;2023-05-10T06:17:58;15.90;91.30
47590;DHT22;33316;52.298;9.056;2023-05-10T06:20:26;15.90;91.30
47590;DHT22;33316;52.298;9.056;2023-05-10T06:22:52;15.90;91.20
47590;DHT22;33316;52.298;9.056;2023-05-10T06:25:19;15.90;91.20
47590;DHT22;33316;52.298;9.056;2023-05-10T06:27:46;15.80;91.20
47590;DHT22;33316;52.298;9.056;2023-05-10T06:30:13;15.80;91.20
47590;DHT22;33316;52.298;9.056;2023-05-10T06:32:40;15.80;91.30
47590;DHT22;33316;52.298;9.056;2023-05-10T06:35:09;15.80;91.30
47590;DHT22;33316;52.298;9.056;2023-05-10T06:37:37;15.80;91.30
47590;DHT22;33316;52.298;9.056;2023-05-10T06:40:05;15.80;91.30
47590;DHT22;33316;52.298;9.056;2023-05-10T06:42:32;15.90;91.30
47590;DHT22;33316;52.298;9.056;2023-05-10T06:44:59;15.90;91.30
47590;DHT22;33316;52.298;9.056;2023-05-10T06:47:25;15.80;91.30
47590;DHT22;33316;52.298;9.056;2023-05-10T06:49:52;15.80;91.30
47590;DHT22;33316;52.298;9.056;2023-05-10T06:52:19;15.90;91.30
47590;DHT22;33316;52.298;9.056;2023-05-10T06:54:46;15.90;91.20
47590;DHT22;33316;52.298;9.056;2023-05-10T06:57:16;15.80;91.20
47590;DHT22;33316;52.298;9.056;2023-05-10T06:59:44;15.80;91.10
47590;DHT22;33316;52.298;9.056;2023-05-10T07:02:10;15.80;91.10
47590;DHT22;33316;52.298;9.056;2023-05-10T07:04:37;15.80;91.10
47590;DHT22;33316;52.298;9.056;2023-05-10T07:07:04;15.80;91.10
47590;DHT22;33316;52.298;9.056;2023-05-10T07:09:30;15.80;91.00
47590;DHT22;33316;52.298;9.056;2023-05-10T07:11:58;15.80;91.00
47590;DHT22;33316;52.298;9.056;2023-05-10T07:14:27;15.80;91.00
47590;DHT22;33316;52.298;9.056;2023-05-10T07:16:53;15.80;91.00
47590;DHT22;33316;52.298;9.056;2023-05-10T07:19:29;15.70;91.00
47590;DHT22;33316;52.298;9.056;2023-05-10T07:21:59;15.80;91.00
47590;DHT22;33316;52.298;9.056;2023-05-10T07:24:25;15.80;91.00
47590;DHT22;33316;52.298;9.056;2023-05-10T07:26:52;15.80;90.90
47590;DHT22;33316;52.298;9.056;2023-05-10T07:29:20;15.70;90.90
47590;DHT22;33316;52.298;9.056;2023-05-10T07:31:47;15.70;91.00
47590;DHT22;33316;52.298;9.056;2023-05-10T07:34:16;15.70;91.00
47590;DHT22;33316;52.298;9.056;2023-05-10T07:36:43;15.70;90.90
47590;DHT22;33316;52.298;9.056;2023-05-10T07:39:10;15.70;90.90
47590;DHT22;33316;52.298;9.056;2023-05-10T07:41:37;15.70;90.90
47590;DHT22;33316;52.298;9.056;2023-05-10T07:44:04;15.70;90.90
47590;DHT22;33316;52.298;9.056;2023-05-10T07:46:32;15.70;90.80
47590;DHT22;33316;52.298;9.056;2023-05-10T07:48:59;15.70;90.80
47590;DHT22;33316;52.298;9.056;2023-05-10T07:51:25;15.80;90.80
47590;DHT22;33316;52.298;9.056;2023-05-10T07:53:53;15.80;90.80
47590;DHT22;33316;52.298;9.056;2023-05-10T07:56:21;15.80;90.70
47590;DHT22;33316;52.298;9.056;2023-05-10T07:58:51;15.80;90.80
47590;DHT22;33316;52.298;9.056;2023-05-10T08:01:21;15.80;90.80
47590;DHT22;33316;52.298;9.056;2023-05-10T08:03:50;15.80;90.90
47590;DHT22;33316;52.298;9.056;2023-05-10T08:06:19;15.80;91.00
47590;DHT22;33316;52.298;9.056;2023-05-10T08:08:46;15.90;91.10
47590;DHT22;33316;52.298;9.056;2023-05-10T08:11:14;15.90;91.20
47590;DHT22;33316;52.298;9.056;2023-05-10T08:13:42;15.90;91.20
47590;DHT22;33316;52.298;9.056;2023-05-10T08:16:09;16.00;91.30
47590;DHT22;33316;52.298;9.056;2023-05-10T08:18:36;16.10;91.30
47590;DHT22;33316;52.298;9.056;2023-05-10T08:21:09;16.10;91.30
47590;DHT22;33316;52.298;9.056;2023-05-10T08:23:37;16.20;91.30
47590;DHT22;33316;52.298;9.056;2023-05-10T08:26:03;16.30;91.40
47590;DHT22;33316;52.298;9.056;2023-05-10T08:28:30;16.40;91.40
47590;DHT22;33316;52.298;9.056;2023-05-10T08:30:57;16.40;91.30
47590;DHT22;33316;52.298;9.056;2023-05-10T08:33:23;16.50;91.30
47590;DHT22;33316;52.298;9.056;2023-05-10T08:35:50;16.50;91.20
47590;DHT22;33316;52.298;9.056;2023-05-10T08:38:19;16.60;91.10
47590;DHT22;33316;52.298;9.056;2023-05-10T08:40:46;16.60;91.10
47590;DHT22;33316;52.298;9.056;2023-05-10T08:43:16;16.70;91.00
47590;DHT22;33316;52.298;9.056;2023-05-10T08:45:44;16.70;90.80
47590;DHT22;33316;52.298;9.056;2023-05-10T08:48:12;16.70;90.80
47590;DHT22;33316;52.298;9.056;2023-05-10T08:50:44;16.80;90.70
47590;DHT22;33316;52.298;9.056;2023-05-10T08:53:12;16.80;90.70
47590;DHT22;33316;52.298;9.056;2023-05-10T08:55:40;16.90;90.70
47590;DHT22;33316;52.298;9.056;2023-05-10T08:58:08;16.90;90.60
47590;DHT22;33316;52.298;9.056;2023-05-10T09:00:36;16.90;90.50
47590;DHT22;33316;52.298;9.056;2023-05-10T09:03:04;16.90;90.40
47590;DHT22;33316;52.298;9.056;2023-05-10T09:05:31;17.00;90.40
47590;DHT22;33316;52.298;9.056;2023-05-10T09:07:58;17.00;90.30
47590;DHT22;33316;52.298;9.056;2023-05-10T09:10:26;17.00;90.30
47590;DHT22;33316;52.298;9.056;2023-05-10T09:12:56;17.00;90.20
47590;DHT22;33316;52.298;9.056;2023-05-10T09:15:23;17.10;90.10
47590;DHT22;33316;52.298;9.056;2023-05-10T09:17:50;17.10;90.00
47590;DHT22;33316;52.298;9.056;2023-05-10T09:20:17;17.20;89.80
47590;DHT22;33316;52.298;9.056;2023-05-10T09:22:43;17.20;89.40
47590;DHT22;33316;52.298;9.056;2023-05-10T09:25:12;17.20;89.20
47590;DHT22;33316;52.298;9.056;2023-05-10T09:27:40;17.20;89.30
47590;DHT22;33316;52.298;9.056;2023-05-10T09:30:10;17.20;89.40
47590;DHT22;33316;52.298;9.056;2023-05-10T09:32:38;17.30;89.50
47590;DHT22;33316;52.298;9.056;2023-05-10T09:35:09;17.30;89.30
47590;DHT22;33316;52.298;9.056;2023-05-10T09:37:36;17.30;88.90
47590;DHT22;33316;52.298;9.056;2023-05-10T09:40:05;17.30;88.90
47590;DHT22;33316;52.298;9.056;2023-05-10T09:42:35;17.30;89.00
47590;DHT22;33316;52.298;9.056;2023-05-10T09:45:03;17.30;88.90
47590;DHT22;33316;52.298;9.056;2023-05-10T09:47:33;17.30;88.70
47590;DHT22;33316;52.298;9.056;2023-05-10T09:50:03;17.30;88.80
47590;DHT22;33316;52.298;9.056;2023-05-10T09:52:30;17.30;88.70
47590;DHT22;33316;52.298;9.056;2023-05-10T09:54:57;17.30;88.50
47590;DHT22;33316;52.298;9.056;2023-05-10T09:57:24;17.30;88.50
47590;DHT22;33316;52.298;9.056;2023-05-10T10:00:00;17.30;88.40
47590;DHT22;33316;52.298;9.056;2023-05-10T10:02:34;17.40;88.50
47590;DHT22;33316;52.298;9.056;2023-05-10T10:05:02;17.40;88.80
47590;DHT22;33316;52.298;9.056;2023-05-10T10:07:30;17.50;88.80
47590;DHT22;33316;52.298;9.056;2023-05-10T10:09:58;17.60;88.50
47590;DHT22;33316;52.298;9.056;2023-05-10T10:12:26;17.70;88.20
47590;DHT22;33316;52.298;9.056;2023-05-10T10:14:53;17.80;87.90
47590;DHT22;33316;52.298;9.056;2023-05-10T10:17:21;17.90;87.50
47590;DHT22;33316;52.298;9.056;2023-05-10T10:19:49;18.00;86.80
47590;DHT22;33316;52.298;9.056;2023-05-10T10:22:18;18.00;86.50
47590;DHT22;33316;52.298;9.056;2023-05-10T10:24:45;18.10;86.20
47590;DHT22;33316;52.298;9.056;2023-05-10T10:27:21;18.20;86.00
47590;DHT22;33316;52.298;9.056;2023-05-10T10:29:57;18.30;85.60
47590;DHT22;33316;52.298;9.056;2023-05-10T10:32:48;18.30;85.60
47590;DHT22;33316;52.298;9.056;2023-05-10T10:35:20;18.40;85.40
47590;DHT22;33316;52.298;9.056;2023-05-10T10:37:53;18.60;85.10
47590;DHT22;33316;52.298;9.056;2023-05-10T10:40:26;18.60;84.60
47590;DHT22;33316;52.298;9.056;2023-05-10T10:42:56;18.60;84.40
47590;DHT22;33316;52.298;9.056;2023-05-10T10:45:27;18.60;84.20
47590;DHT22;33316;52.298;9.056;2023-05-10T10:48:21;18.50;83.80
47590;DHT22;33316;52.298;9.056;2023-05-10T10:51:02;18.50;83.70
47590;DHT22;33316;52.298;9.056;2023-05-10T10:53:34;18.60;84.00
47590;DHT22;33316;52.298;9.056;2023-05-10T10:56:06;18.60;83.80
47590;DHT22;33316;52.298;9.056;2023-05-10T10:58:39;18.70;84.00
47590;DHT22;33316;52.298;9.056;2023-05-10T11:01:14;18.80;83.90
47590;DHT22;33316;52.298;9.056;2023-05-10T11:03:41;18.90;83.60
47590;DHT22;33316;52.298;9.056;2023-05-10T11:06:39;18.90;83.00
47590;DHT22;33316;52.298;9.056;2023-05-10T11:09:09;19.00;82.90
47590;DHT22;33316;52.298;9.056;2023-05-10T11:11:50;19.10;82.70
47590;DHT22;33316;52.298;9.056;2023-05-10T11:14:27;19.20;82.10
47590;DHT22;33316;52.298;9.056;2023-05-10T11:16:58;19.20;81.60
47590;DHT22;33316;52.298;9.056;2023-05-10T11:19:27;19.30;81.40
47590;DHT22;33316;52.298;9.056;2023-05-10T11:22:17;19.30;81.20
47590;DHT22;33316;52.298;9.056;2023-05-10T11:24:56;19.40;81.00
47590;DHT22;33316;52.298;9.056;2023-05-10T11:27:23;19.40;80.60
47590;DHT22;33316;52.298;9.056;2023-05-10T11:29:53;19.40;80.60
47590;DHT22;33316;52.298;9.056;2023-05-10T11:32:23;19.50;80.10
47590;DHT22;33316;52.298;9.056;2023-05-10T11:34:50;19.50;79.80
47590;DHT22;33316;52.298;9.056;2023-05-10T11:37:18;19.50;79.60
47590;DHT22;33316;52.298;9.056;2023-05-10T11:39:46;19.50;79.80
47590;DHT22;33316;52.298;9.056;2023-05-10T11:42:13;19.60;79.80
47590;DHT22;33316;52.298;9.056;2023-05-10T11:44:40;19.60;79.20
47590;DHT22;33316;52.298;9.056;2023-05-10T11:47:08;19.60;79.00
47590;DHT22;33316;52.298;9.056;2023-05-10T11:49:35;19.60;78.90
47590;DHT22;33316;52.298;9.056;2023-05-10T11:52:05;19.70;78.60
47590;DHT22;33316;52.298;9.056;2023-05-10T11:54:45;19.70;78.40
47590;DHT22;33316;52.298;9.056;2023-05-10T11:57:12;19.80;78.60
47590;DHT22;33316;52.298;9.056;2023-05-10T11:59:40;19.80;78.40
47590;DHT22;33316;52.298;9.056;2023-05-10T12:02:07;19.90;78.30
47590;DHT22;33316;52.298;9.056;2023-05-10T12:04:33;19.90;77.80
47590;DHT22;33316;52.298;9.056;2023-05-10T12:07:05;19.90;77.60
47590;DHT22;33316;52.298;9.056;2023-05-10T12:09:34;20.00;77.20
47590;DHT22;33316;52.298;9.056;2023-05-10T12:12:02;20.00;76.80
47590;DHT22;33316;52.298;9.056;2023-05-10T12:14:29;20.00;76.60
47590;DHT22;33316;52.298;9.056;2023-05-10T12:17:00;20.00;76.40
47590;DHT22;33316;52.298;9.056;2023-05-10T12:19:27;20.00;76.00
47590;DHT22;33316;52.298;9.056;2023-05-10T12:21:53;20.00;75.40
47590;DHT22;33316;52.298;9.056;2023-05-10T12:24:20;20.00;75.00
47590;DHT22;33316;52.298;9.056;2023-05-10T12:26:47;20.00;74.70
47590;DHT22;33316;52.298;9.056;2023-05-10T12:29:17;20.10;74.20
47590;DHT22;33316;52.298;9.056;2023-05-10T12:31:57;20.10;73.90
47590;DHT22;33316;52.298;9.056;2023-05-10T12:34:34;20.20;73.50
47590;DHT22;33316;52.298;9.056;2023-05-10T12:37:04;20.20;74.30
47590;DHT22;33316;52.298;9.056;2023-05-10T12:39:40;20.20;74.40
47590;DHT22;33316;52.298;9.056;2023-05-10T12:42:09;20.30;74.60
47590;DHT22;33316;52.298;9.056;2023-05-10T12:44:38;20.30;74.90
47590;DHT22;33316;52.298;9.056;2023-05-10T12:47:05;20.40;74.20
47590;DHT22;33316;52.298;9.056;2023-05-10T12:49:32;20.40;73.70
47590;DHT22;33316;52.298;9.056;2023-05-10T12:51:59;20.40;73.30
47590;DHT22;33316;52.298;9.056;2023-05-10T12:54:29;20.50;73.20
47590;DHT22;33316;52.298;9.056;2023-05-10T12:56:56;20.50;72.90
47590;DHT22;33316;52.298;9.056;2023-05-10T12:59:23;20.60;72.90
47590;DHT22;33316;52.298;9.056;2023-05-10T13:01:54;20.70;72.50
47590;DHT22;33316;52.298;9.056;2023-05-10T13:04:25;20.80;72.60
47590;DHT22;33316;52.298;9.056;2023-05-10T13:06:53;20.80;72.20
47590;DHT22;33316;52.298;9.056;2023-05-10T13:09:21;20.80;72.10
47590;DHT22;33316;52.298;9.056;2023-05-10T13:11:48;20.90;73.30
47590;DHT22;33316;52.298;9.056;2023-05-10T13:14:15;20.90;72.10
47590;DHT22;33316;52.298;9.056;2023-05-10T13:16:42;20.90;72.20
47590;DHT22;33316;52.298;9.056;2023-05-10T13:19:10;20.90;72.10
47590;DHT22;33316;52.298;9.056;2023-05-10T13:21:37;20.90;71.80
47590;DHT22;33316;52.298;9.056;2023-05-10T13:24:03;20.90;71.60
47590;DHT22;33316;52.298;9.056;2023-05-10T13:26:31;20.90;71.80
47590;DHT22;33316;52.298;9.056;2023-05-10T13:28:57;20.90;72.00
47590;DHT22;33316;52.298;9.056;2023-05-10T13:31:24;20.80;71.80
47590;DHT22;33316;52.298;9.056;2023-05-10T13:33:51;20.80;71.80
47590;DHT22;33316;52.298;9.056;2023-05-10T13:36:19;20.80;72.50
47590;DHT22;33316;52.298;9.056;2023-05-10T13:38:46;20.70;71.50
47590;DHT22;33316;52.298;9.056;2023-05-10T13:41:12;20.70;71.30
47590;DHT22;33316;52.298;9.056;2023-05-10T13:43:39;20.70;71.50
47590;DHT22;33316;52.298;9.056;2023-05-10T13:46:06;20.70;71.70
47590;DHT22;33316;52.298;9.056;2023-05-10T13:48:32;20.70;72.00
47590;DHT22;33316;52.298;9.056;2023-05-10T13:50:59;20.60;72.20
47590;DHT22;33316;52.298;9.056;2023-05-10T13:53:27;20.60;72.60
47590;DHT22;33316;52.298;9.056;2023-05-10T13:55:54;20.50;73.30
47590;DHT22;33316;52.298;9.056;2023-05-10T13:58:20;20.40;73.40
47590;DHT22;33316;52.298;9.056;2023-05-10T14:00:47;20.40;73.70
47590;DHT22;33316;52.298;9.056;2023-05-10T14:03:14;20.40;74.10
47590;DHT22;33316;52.298;9.056;2023-05-10T14:05:41;20.40;74.10
47590;DHT22;33316;52.298;9.056;2023-05-10T14:08:07;20.40;74.10
47590;DHT22;33316;52.298;9.056;2023-05-10T14:10:36;20.30;74.40
47590;DHT22;33316;52.298;9.056;2023-05-10T14:13:03;20.30;74.50
47590;DHT22;33316;52.298;9.056;2023-05-10T14:15:30;20.30;74.10
47590;DHT22;33316;52.298;9.056;2023-05-10T14:17:56;20.20;74.20
47590;DHT22;33316;52.298;9.056;2023-05-10T14:20:23;20.20;74.40
47590;DHT22;33316;52.298;9.056;2023-05-10T14:22:50;20.20;74.40
47590;DHT22;33316;52.298;9.056;2023-05-10T14:25:16;20.10;74.50
47590;DHT22;33316;52.298;9.056;2023-05-10T14:27:46;20.20;74.70
47590;DHT22;33316;52.298;9.056;2023-05-10T14:30:13;20.20;74.60
47590;DHT22;33316;52.298;9.056;2023-05-10T14:32:40;20.30;74.50
47590;DHT22;33316;52.298;9.056;2023-05-10T14:35:07;20.30;74.30
47590;DHT22;33316;52.298;9.056;2023-05-10T14:37:34;20.40;74.60
47590;DHT22;33316;52.298;9.056;2023-05-10T14:40:01;20.40;74.40
47590;DHT22;33316;52.298;9.056;2023-05-10T14:42:29;20.40;74.50
47590;DHT22;33316;52.298;9.056;2023-05-10T14:44:57;20.40;74.40
47590;DHT22;33316;52.298;9.056;2023-05-10T14:47:24;20.30;73.80
47590;DHT22;33316;52.298;9.056;2023-05-10T14:49:51;20.30;73.30
47590;DHT22;33316;52.298;9.056;2023-05-10T14:52:17;20.20;73.50
47590;DHT22;33316;52.298;9.056;2023-05-10T14:54:44;20.10;73.60
47590;DHT22;33316;52.298;9.056;2023-05-10T14:57:11;20.00;73.90
47590;DHT22;33316;52.298;9.056;2023-05-10T14:59:38;20.00;74.00
47590;DHT22;33316;52.298;9.056;2023-05-10T15:02:06;20.00;74.20
47590;DHT22;33316;52.298;9.056;2023-05-10T15:04:37;20.00;74.30
47590;DHT22;33316;52.298;9.056;2023-05-10T15:07:13;19.90;74.40
47590;DHT22;33316;52.298;9.056;2023-05-10T15:09:41;19.90;74.40
47590;DHT22;33316;52.298;9.056;2023-05-10T15:12:08;19.90;74.40
47590;DHT22;33316;52.298;9.056;2023-05-10T15:14:38;19.80;75.10
47590;DHT22;33316;52.298;9.056;2023-05-10T15:17:06;19.80;74.20
47590;DHT22;33316;52.298;9.056;2023-05-10T15:19:33;19.80;74.00
47590;DHT22;33316;52.298;9.056;2023-05-10T15:22:03;19.70;74.10
47590;DHT22;33316;52.298;9.056;2023-05-10T15:24:30;19.70;74.40
47590;DHT22;33316;52.298;9.056;2023-05-10T15:26:57;19.60;74.50
47590;DHT22;33316;52.298;9.056;2023-05-10T15:29:24;19.60;74.40
47590;DHT22;33316;52.298;9.056;2023-05-10T15:31:53;19.70;74.60
47590;DHT22;33316;52.298;9.056;2023-05-10T15:34:24;19.70;74.90
47590;DHT22;33316;52.298;9.056;2023-05-10T15:36:51;19.60;75.00
47590;DHT22;33316;52.298;9.056;2023-05-10T15:39:18;19.60;75.30